Weather at Citywest Heliport

Public forecast

Using degrees Celsius for public forecast. Weather courtesy of forecast.io.

Closest aviation weather report (METAR) to Citywest Heliport

Closest report is Casement Air Base, 1.0 nm (1.8 km) NNW.

2024/05/26 17:00 (retrieved 46 minutes ago)

EIME 261700Z 22009KT 180V240 9999 VCSH FEW016 FEW018CB BKN050 13/11 Q1007

Closest aviation forecast (TAF) to Citywest Heliport

Closest forecast is Dublin Airport, 10.8 nm (20.0 km) NE.

2024/05/26 13:13 Ammendment (retrieved 5 hours ago)

TAF AMD EIDW 261304Z 2613/2712 07006KT 9999 FEW006 BKN022 TEMPO 2613/2616 VRB03KT TEMPO 2613/2619 -SHRA FEW018CB PROB40 TEMPO 2613/2619 4000 SHRA SCT018CB PROB30 TEMPO 2613/2618 2000 TSRA BKN012 BECMG 2615/2617 25010KT BECMG 2710/2712 21007KT